createdAt,value
2018-06-20T00:02:09.657Z,3.80
2018-06-20T00:04:42.229Z,4.30
2018-06-20T00:07:15.277Z,4.43
2018-06-20T00:09:47.850Z,3.90
2018-06-20T00:12:34.322Z,3.40
2018-06-20T00:15:07.941Z,3.60
2018-06-20T00:17:40.592Z,4.00
2018-06-20T00:20:13.502Z,3.10
2018-06-20T00:22:48.435Z,3.77
2018-06-20T00:25:21.077Z,4.65
2018-06-20T00:27:54.977Z,4.23
2018-06-20T00:30:28.309Z,4.60
2018-06-20T00:33:00.836Z,4.00
2018-06-20T00:35:33.601Z,3.97
2018-06-20T00:38:06.652Z,5.40
2018-06-20T00:40:39.184Z,6.00
2018-06-20T00:43:14.185Z,4.20
2018-06-20T00:45:46.844Z,5.30
2018-06-20T00:48:19.292Z,5.70
2018-06-20T00:50:52.121Z,4.30
2018-06-20T00:53:25.651Z,4.63
2018-06-20T00:56:20.713Z,4.97
2018-06-20T00:58:53.500Z,4.30
2018-06-20T01:01:25.999Z,3.90
2018-06-20T01:03:58.611Z,4.50
2018-06-20T01:06:31.294Z,4.40
2018-06-20T01:09:08.333Z,3.50
2018-06-20T01:11:40.831Z,4.30
2018-06-20T01:14:13.713Z,4.10
2018-06-20T01:16:47.250Z,4.60
2018-06-20T01:19:19.739Z,4.43
2018-06-20T01:21:52.882Z,5.10
2018-06-20T01:24:26.954Z,5.47
2018-06-20T01:26:59.889Z,6.33
2018-06-20T01:29:36.448Z,6.95
2018-06-20T01:32:09.093Z,4.87
2018-06-20T01:34:42.349Z,6.10
2018-06-20T01:37:17.402Z,5.43
2018-06-20T01:39:49.824Z,5.10
2018-06-20T01:42:22.414Z,5.80
2018-06-20T01:44:56.074Z,7.17
2018-06-20T01:47:29.257Z,8.63
2018-06-20T01:50:01.936Z,8.37
2018-06-20T01:52:34.762Z,7.60
2018-06-20T01:55:09.011Z,9.13
2018-06-20T01:57:41.531Z,8.70
2018-06-20T02:00:16.356Z,9.33
2018-06-20T02:02:48.865Z,8.17
2018-06-20T02:05:23.987Z,9.13
2018-06-20T02:07:58.680Z,8.90
2018-06-20T02:10:31.370Z,8.50
2018-06-20T02:13:05.348Z,8.93
2018-06-20T02:15:39.009Z,8.20
2018-06-20T02:18:12.884Z,8.87
2018-06-20T02:20:47.193Z,8.87
2018-06-20T02:23:21.344Z,8.33
2018-06-20T02:25:58.537Z,8.37
2018-06-20T02:28:33.923Z,8.17
2018-06-20T02:31:07.106Z,8.13
2018-06-20T02:33:39.946Z,9.15
2018-06-20T02:36:19.142Z,8.40
2018-06-20T02:38:53.539Z,7.73
2018-06-20T02:41:31.462Z,8.40
2018-06-20T02:44:05.644Z,9.25
2018-06-20T02:46:38.227Z,9.03
2018-06-20T02:49:12.816Z,8.83
2018-06-20T02:51:46.333Z,8.07
2018-06-20T02:54:19.657Z,7.90
2018-06-20T02:56:54.377Z,8.70
2018-06-20T02:59:34.717Z,9.32
2018-06-20T03:02:07.365Z,9.60
2018-06-20T03:04:44.266Z,8.43
2018-06-20T03:07:18.513Z,6.93
2018-06-20T03:09:52.034Z,6.33
2018-06-20T03:12:25.658Z,5.30
2018-06-20T03:15:00.142Z,5.10
2018-06-20T03:17:35.545Z,7.67
2018-06-20T03:20:08.833Z,7.70
2018-06-20T03:22:43.162Z,7.45
2018-06-20T03:25:16.834Z,7.50
2018-06-20T03:27:52.524Z,7.50
2018-06-20T03:30:27.401Z,8.47
2018-06-20T03:33:00.808Z,8.73
2018-06-20T03:35:35.933Z,8.20
2018-06-20T03:38:09.469Z,8.70
2018-06-20T03:40:42.049Z,11.97
2018-06-20T03:43:15.787Z,8.63
2018-06-20T03:45:53.393Z,9.75
2018-06-20T03:48:26.195Z,9.20
2018-06-20T03:51:00.784Z,8.80
2018-06-20T03:53:33.817Z,9.07
2018-06-20T03:56:08.012Z,9.20
2018-06-20T03:58:43.191Z,10.17
2018-06-20T04:01:15.740Z,9.82
2018-06-20T04:03:49.178Z,9.57
2018-06-20T04:06:22.665Z,8.83
2018-06-20T04:08:56.079Z,9.73
2018-06-20T04:11:28.891Z,9.60
2018-06-20T04:14:02.868Z,10.53
2018-06-20T04:16:38.249Z,9.63
2018-06-20T04:19:11.759Z,9.30
2018-06-20T04:21:45.276Z,8.50
2018-06-20T04:24:17.857Z,9.10
2018-06-20T04:26:50.586Z,8.27
2018-06-20T04:29:23.033Z,8.43
2018-06-20T04:31:56.324Z,8.57
2018-06-20T04:34:30.952Z,9.40
2018-06-20T04:37:05.104Z,10.27
2018-06-20T04:39:41.196Z,8.80
2018-06-20T04:42:15.537Z,8.27
2018-06-20T04:44:50.556Z,8.53
2018-06-20T04:47:25.315Z,8.87
2018-06-20T04:49:59.165Z,8.73
2018-06-20T04:52:33.500Z,8.90
2018-06-20T04:55:06.798Z,8.63
2018-06-20T04:57:40.932Z,8.27
2018-06-20T05:00:17.202Z,7.90
2018-06-20T05:02:49.564Z,8.70
2018-06-20T05:05:22.010Z,8.20
2018-06-20T05:07:55.396Z,8.13
2018-06-20T05:10:28.592Z,7.30
2018-06-20T05:13:05.289Z,7.60
2018-06-20T05:15:38.755Z,7.73
2018-06-20T05:18:12.263Z,8.35
2018-06-20T05:20:53.686Z,8.47
2018-06-20T05:23:29.238Z,8.40
2018-06-20T05:26:01.692Z,9.27
2018-06-20T05:28:34.489Z,9.77
2018-06-20T05:31:08.899Z,8.27
2018-06-20T05:33:41.601Z,8.13
2018-06-20T05:36:14.400Z,7.90
2018-06-20T05:38:46.993Z,7.93
2018-06-20T05:41:21.424Z,7.23
2018-06-20T05:43:54.307Z,6.93
2018-06-20T05:46:27.132Z,7.53
2018-06-20T05:49:00.507Z,7.60
2018-06-20T05:51:33.835Z,7.83
2018-06-20T05:54:07.877Z,6.47
2018-06-20T05:56:41.794Z,7.27
2018-06-20T05:59:15.306Z,7.90
2018-06-20T06:01:49.044Z,7.70
2018-06-20T06:04:24.435Z,8.10
2018-06-20T06:06:57.901Z,8.33
2018-06-20T06:09:38.707Z,7.70
2018-06-20T06:12:12.673Z,7.50
2018-06-20T06:14:46.719Z,7.47
2018-06-20T06:17:19.572Z,8.00
2018-06-20T06:19:52.684Z,8.03
2018-06-20T06:22:26.820Z,8.82
2018-06-20T06:25:00.105Z,8.50
2018-06-20T06:27:33.409Z,8.10
2018-06-20T06:30:13.022Z,8.20
2018-06-20T06:32:48.908Z,8.27
2018-06-20T06:35:22.647Z,6.90
2018-06-20T06:37:57.412Z,5.90
2018-06-20T06:40:30.605Z,5.80
2018-06-20T06:43:04.878Z,6.35
2018-06-20T06:45:39.311Z,6.20
2018-06-20T06:48:16.137Z,6.37
2018-06-20T06:50:48.776Z,6.50
2018-06-20T06:53:22.902Z,6.73
2018-06-20T06:55:55.586Z,6.67
2018-06-20T06:58:28.820Z,7.22
2018-06-20T07:01:08.829Z,6.47
2018-06-20T07:03:45.095Z,6.07
2018-06-20T07:06:17.851Z,6.25
2018-06-20T07:08:52.480Z,6.10
2018-06-20T07:11:25.944Z,5.20
2018-06-20T07:14:02.535Z,5.00
2018-06-20T07:16:36.975Z,5.17
2018-06-20T07:19:09.479Z,4.53
2018-06-20T07:21:43.748Z,4.50
2018-06-20T07:24:18.892Z,4.53
2018-06-20T07:26:55.608Z,3.97
2018-06-20T07:29:29.947Z,4.43
2018-06-20T07:32:03.452Z,3.53
2018-06-20T07:34:36.584Z,4.20
2018-06-20T07:37:10.369Z,3.83
2018-06-20T07:39:43.830Z,3.73
2018-06-20T07:42:20.496Z,3.67
2018-06-20T07:44:53.150Z,3.63
2018-06-20T07:47:25.746Z,3.60
2018-06-20T07:49:58.679Z,3.40
2018-06-20T07:52:33.814Z,3.53
2018-06-20T07:55:07.640Z,4.80
2018-06-20T07:57:41.075Z,3.83
2018-06-20T08:00:20.319Z,3.60
2018-06-20T08:03:37.649Z,4.60
2018-06-20T08:07:01.848Z,3.28
2018-06-20T08:09:42.714Z,3.80
2018-06-20T08:12:22.245Z,3.40
2018-06-20T08:15:00.729Z,3.90
2018-06-20T08:17:40.906Z,3.47
2018-06-20T08:20:20.732Z,3.13
2018-06-20T08:22:55.974Z,4.03
2018-06-20T08:25:29.918Z,3.97
2018-06-20T08:28:02.507Z,4.30
2018-06-20T08:30:36.762Z,3.37
2018-06-20T08:33:10.607Z,3.97
2018-06-20T08:35:44.217Z,3.87
2018-06-20T08:38:23.453Z,3.50
2018-06-20T08:40:58.630Z,3.90
2018-06-20T08:43:34.137Z,3.60
2018-06-20T08:46:08.202Z,3.73
2018-06-20T08:48:40.803Z,3.80
2018-06-20T08:51:13.350Z,3.90
2018-06-20T08:53:45.964Z,3.60
2018-06-20T08:56:19.611Z,4.20
2018-06-20T08:58:54.453Z,4.32
2018-06-20T09:01:29.024Z,3.60
2018-06-20T09:04:10.606Z,3.40
2018-06-20T09:06:49.357Z,3.70
2018-06-20T09:09:27.948Z,4.30
2018-06-20T09:12:21.513Z,3.93
2018-06-20T09:15:14.571Z,3.87
2018-06-20T09:17:54.422Z,8.07
2018-06-20T09:20:27.612Z,4.40
2018-06-20T09:23:00.311Z,3.70
2018-06-20T09:25:33.729Z,3.67
2018-06-20T09:28:08.207Z,3.87
2018-06-20T09:30:41.662Z,3.80
2018-06-20T09:33:14.452Z,3.83
2018-06-20T09:35:48.415Z,3.70
2018-06-20T09:38:21.044Z,4.00
2018-06-20T09:40:58.050Z,4.53
2018-06-20T09:43:38.542Z,4.20
2018-06-20T09:46:12.997Z,3.97
2018-06-20T09:48:46.056Z,3.97
2018-06-20T09:51:19.553Z,3.53
2018-06-20T09:53:55.476Z,3.45
2018-06-20T09:56:33.444Z,3.20
2018-06-20T09:59:12.704Z,3.20
2018-06-20T10:01:52.779Z,2.92
2018-06-20T10:04:36.268Z,3.30
2018-06-20T10:07:33.492Z,3.00
2018-06-20T10:10:23.040Z,3.47
2018-06-20T10:13:17.121Z,2.57
2018-06-20T10:15:51.229Z,2.50
2018-06-20T10:18:24.426Z,2.67
2018-06-20T10:20:57.993Z,2.72
2018-06-20T10:23:31.543Z,2.60
2018-06-20T10:26:07.064Z,2.40
2018-06-20T10:28:40.503Z,2.80
2018-06-20T10:31:14.668Z,2.67
2018-06-20T10:33:47.694Z,2.60
2018-06-20T10:36:21.156Z,2.57
2018-06-20T10:38:56.289Z,2.00
2018-06-20T10:41:39.929Z,2.13
2018-06-20T10:44:15.656Z,2.13
2018-06-20T10:46:56.111Z,2.40
2018-06-20T10:49:35.628Z,2.03
2018-06-20T10:52:12.447Z,2.57
2018-06-20T10:54:48.167Z,2.43
2018-06-20T10:57:27.767Z,2.43
2018-06-20T11:00:07.602Z,2.33
2018-06-20T11:02:46.844Z,2.57
2018-06-20T11:05:25.293Z,2.50
2018-06-20T11:08:05.977Z,2.70
2018-06-20T11:10:44.797Z,2.63
2018-06-20T11:13:19.807Z,2.50
2018-06-20T11:15:52.456Z,2.80
2018-06-20T11:18:28.037Z,2.63
2018-06-20T11:21:05.268Z,2.33
2018-06-20T11:24:09.683Z,2.50
2018-06-20T11:26:47.319Z,2.77
2018-06-20T11:29:22.746Z,2.40
2018-06-20T11:31:56.777Z,2.27
2018-06-20T11:34:29.713Z,2.53
2018-06-20T11:37:02.995Z,2.40
2018-06-20T11:39:35.965Z,2.20
2018-06-20T11:42:28.612Z,2.47
2018-06-20T11:45:10.644Z,2.00
2018-06-20T11:47:45.337Z,1.98
2018-06-20T11:50:22.913Z,2.17
2018-06-20T11:53:20.413Z,2.50
2018-06-20T11:56:04.453Z,2.53
2018-06-20T11:58:44.770Z,2.00
2018-06-20T12:01:28.029Z,1.60
2018-06-20T12:04:07.468Z,1.97
2018-06-20T12:06:47.951Z,1.80
2018-06-20T12:09:27.920Z,1.70
2018-06-20T12:12:06.859Z,2.12
2018-06-20T12:14:46.532Z,2.00
2018-06-20T12:17:25.089Z,2.00
2018-06-20T12:20:08.238Z,2.00
2018-06-20T12:22:46.616Z,1.93
2018-06-20T12:25:26.268Z,1.60
2018-06-20T12:28:09.305Z,1.50
2018-06-20T12:31:00.813Z,1.63
2018-06-20T12:33:41.168Z,2.10
2018-06-20T12:36:23.297Z,2.00
2018-06-20T12:39:00.832Z,1.87
2018-06-20T12:41:39.618Z,2.13
2018-06-20T12:44:42.066Z,2.00
2018-06-20T12:47:25.143Z,1.70
2018-06-20T12:50:03.672Z,1.70
2018-06-20T12:52:39.859Z,2.03
2018-06-20T12:55:16.775Z,2.07
2018-06-20T12:57:51.708Z,1.77
2018-06-20T13:00:26.972Z,1.50
2018-06-20T13:03:02.601Z,1.77
2018-06-20T13:05:37.563Z,1.40
2018-06-20T13:08:15.601Z,1.67
2018-06-20T13:10:48.901Z,1.63
2018-06-20T13:13:22.196Z,1.50
2018-06-20T13:16:00.407Z,1.63
2018-06-20T13:18:37.829Z,1.50
2018-06-20T13:21:11.721Z,1.50
2018-06-20T13:23:49.439Z,1.43
2018-06-20T13:26:27.592Z,1.70
2018-06-20T13:29:08.285Z,1.67
2018-06-20T13:32:12.502Z,1.43
2018-06-20T13:34:56.612Z,1.43
2018-06-20T13:37:35.325Z,1.20
2018-06-20T13:40:15.887Z,1.30
2018-06-20T13:42:56.197Z,1.40
2018-06-20T13:45:43.447Z,1.40
2018-06-20T13:48:33.487Z,1.30
2018-06-20T13:51:07.668Z,1.40
2018-06-20T13:53:40.958Z,1.23
2018-06-20T13:56:21.227Z,1.20
2018-06-20T13:58:53.847Z,1.90
2018-06-20T14:01:31.176Z,1.23
2018-06-20T14:04:05.205Z,1.00
2018-06-20T14:06:38.709Z,1.33
2018-06-20T14:09:11.763Z,1.33
2018-06-20T14:11:47.633Z,1.50
2018-06-20T14:14:20.754Z,2.27
2018-06-20T14:16:53.738Z,1.50
2018-06-20T14:19:32.276Z,1.67
2018-06-20T14:22:06.680Z,3.83
2018-06-20T14:24:40.062Z,2.17
2018-06-20T14:27:13.569Z,1.60
2018-06-20T14:29:46.431Z,1.80
2018-06-20T14:32:26.647Z,1.50
2018-06-20T14:35:07.267Z,1.60
2018-06-20T14:37:45.725Z,1.60
2018-06-20T14:40:26.358Z,1.57
2018-06-20T14:43:01.396Z,1.23
2018-06-20T14:45:39.785Z,1.20
2018-06-20T14:48:12.366Z,1.10
2018-06-20T14:50:47.576Z,1.13
2018-06-20T14:53:22.749Z,1.07
2018-06-20T14:55:58.168Z,1.30
2018-06-20T14:58:31.723Z,1.37
2018-06-20T15:01:05.740Z,1.02
2018-06-20T15:03:38.148Z,1.10
2018-06-20T15:06:10.910Z,0.90
2018-06-20T15:08:46.199Z,1.20
2018-06-20T15:11:21.148Z,1.00
2018-06-20T15:13:56.529Z,0.97
2018-06-20T15:16:36.328Z,1.00
2018-06-20T15:19:12.393Z,0.77
2018-06-20T15:21:47.357Z,1.25
2018-06-20T15:24:21.322Z,0.80
2018-06-20T15:27:00.305Z,1.00
2018-06-20T15:29:50.681Z,0.90
2018-06-20T15:32:30.365Z,1.03
2018-06-20T15:35:11.282Z,1.10
2018-06-20T15:37:51.745Z,0.93
2018-06-20T15:40:26.017Z,0.80
2018-06-20T15:43:06.649Z,0.80
2018-06-20T15:45:39.878Z,0.90
2018-06-20T15:48:13.983Z,0.70
2018-06-20T15:50:48.273Z,1.10
2018-06-20T15:53:23.500Z,0.90
2018-06-20T15:55:59.507Z,1.10
2018-06-20T15:58:34.820Z,0.80
2018-06-20T16:01:10.103Z,1.10
2018-06-20T16:04:00.418Z,0.90
2018-06-20T16:06:39.410Z,0.97
2018-06-20T16:09:21.968Z,1.00
2018-06-20T16:12:06.222Z,0.90
2018-06-20T16:14:41.518Z,1.10
2018-06-20T16:17:18.426Z,1.00
2018-06-20T16:20:07.637Z,1.10
2018-06-20T16:22:53.143Z,0.90
2018-06-20T16:35:45.592Z,1.10
2018-06-20T16:38:24.060Z,1.00
2018-06-20T16:41:27.499Z,1.30
2018-06-20T16:44:05.485Z,1.30
2018-06-20T16:46:40.000Z,1.30
2018-06-20T16:49:15.019Z,1.30
2018-06-20T16:51:50.746Z,1.50
2018-06-20T16:54:28.891Z,0.80
2018-06-20T16:57:08.695Z,1.03
2018-06-20T17:00:04.872Z,1.17
2018-06-20T17:02:42.287Z,1.30
2018-06-20T17:05:16.579Z,1.20
2018-06-20T17:07:57.823Z,1.10
2018-06-20T17:10:43.795Z,1.10
2018-06-20T17:13:23.659Z,1.20
2018-06-20T17:16:10.100Z,1.03
2018-06-20T17:18:49.714Z,1.27
2018-06-20T17:21:28.569Z,1.20
2018-06-20T17:24:11.043Z,1.23
2018-06-20T17:26:44.838Z,0.97
2018-06-20T17:29:30.831Z,1.07
2018-06-20T17:32:09.879Z,1.17
2018-06-20T17:34:45.371Z,1.20
2018-06-20T17:37:21.637Z,1.30
2018-06-20T17:39:58.237Z,1.00
2018-06-20T17:42:33.669Z,1.20
2018-06-20T17:45:09.080Z,1.40
2018-06-20T17:47:44.959Z,1.40
2018-06-20T17:50:20.477Z,1.40
2018-06-20T17:53:08.473Z,1.30
2018-06-20T17:55:43.802Z,1.45
2018-06-20T17:58:21.103Z,1.10
2018-06-20T18:01:02.630Z,1.23
2018-06-20T18:03:42.575Z,1.50
2018-06-20T18:06:24.942Z,1.40
2018-06-20T18:09:05.409Z,1.30
2018-06-20T18:11:50.416Z,1.30
2018-06-20T18:14:33.098Z,1.30
2018-06-20T18:17:11.188Z,1.57
2018-06-20T18:19:48.570Z,1.50
2018-06-20T18:22:21.717Z,1.25
2018-06-20T18:24:55.114Z,1.52
2018-06-20T18:27:28.602Z,1.60
2018-06-20T18:30:06.795Z,1.50
2018-06-20T18:32:43.941Z,1.57
2018-06-20T18:35:19.583Z,1.50
2018-06-20T18:37:55.589Z,1.47
2018-06-20T18:40:31.664Z,2.07
2018-06-20T18:43:09.165Z,1.87
2018-06-20T18:45:41.716Z,4.57
2018-06-20T18:48:26.909Z,4.63
2018-06-20T18:51:04.599Z,1.67
2018-06-20T18:53:40.552Z,17.40
2018-06-20T18:56:15.701Z,5.40
2018-06-20T18:58:55.516Z,8.97
2018-06-20T19:01:37.594Z,6.93
2018-06-20T19:04:23.249Z,5.70
2018-06-20T19:07:04.502Z,2.70
2018-06-20T19:09:48.369Z,8.90
2018-06-20T19:12:28.452Z,4.90
2018-06-20T19:15:09.888Z,10.53
2018-06-20T19:17:46.488Z,12.53
2018-06-20T19:20:33.490Z,9.23
2018-06-20T19:23:15.654Z,6.37
2018-06-20T19:25:51.166Z,6.75
2018-06-20T19:28:27.872Z,3.70
2018-06-20T19:31:10.260Z,3.10
2018-06-20T19:33:44.022Z,2.60
2018-06-20T19:36:16.717Z,2.47
2018-06-20T19:38:54.002Z,2.10
2018-06-20T19:41:28.795Z,2.50
2018-06-20T19:44:17.935Z,2.47
2018-06-20T19:46:54.785Z,2.00
2018-06-20T19:49:31.657Z,2.00
2018-06-20T19:52:11.596Z,2.37
2018-06-20T19:54:47.553Z,2.47
2018-06-20T19:57:21.676Z,2.10
2018-06-20T19:59:54.472Z,2.20
2018-06-20T20:02:41.192Z,2.23
2018-06-20T20:05:18.880Z,2.20
2018-06-20T20:10:26.195Z,2.22
2018-06-20T20:13:01.933Z,2.40
2018-06-20T20:15:36.791Z,2.70
2018-06-20T20:18:20.931Z,2.40
2018-06-20T20:21:10.175Z,2.30
2018-06-20T20:23:50.670Z,2.70
2018-06-20T20:26:23.798Z,2.33
2018-06-20T20:29:14.545Z,2.40
2018-06-20T20:32:14.399Z,2.33
2018-06-20T20:34:52.142Z,2.70
2018-06-20T20:37:27.312Z,2.37
2018-06-20T20:40:04.134Z,2.60
2018-06-20T20:42:41.925Z,2.40
2018-06-20T20:45:22.849Z,2.30
2018-06-20T20:48:04.751Z,2.63
2018-06-20T20:50:44.309Z,2.60
2018-06-20T20:53:26.273Z,2.37
2018-06-20T20:56:01.628Z,4.63
2018-06-20T20:58:43.062Z,3.07
2018-06-20T21:01:22.324Z,2.63
2018-06-20T21:03:57.119Z,2.77
2018-06-20T21:06:35.091Z,2.75
2018-06-20T21:09:29.629Z,2.60
2018-06-20T21:12:12.351Z,3.50
2018-06-20T21:14:45.993Z,2.87
2018-06-20T21:17:20.548Z,2.40
2018-06-20T21:20:05.591Z,2.90
2018-06-20T21:22:42.065Z,3.03
2018-06-20T21:25:15.323Z,2.27
2018-06-20T21:27:55.069Z,2.63
2018-06-20T21:30:31.835Z,2.50
2018-06-20T21:33:16.075Z,2.30
2018-06-20T21:35:50.230Z,2.60
2018-06-20T21:38:26.545Z,2.37
2018-06-20T21:41:02.529Z,2.70
2018-06-20T21:43:37.706Z,2.47
2018-06-20T21:46:14.030Z,2.53
2018-06-20T21:48:51.759Z,2.67
2018-06-20T21:51:25.407Z,3.50
2018-06-20T21:54:01.365Z,4.67
2018-06-20T21:56:35.893Z,3.53
2018-06-20T21:59:14.359Z,2.77
2018-06-20T22:01:48.659Z,2.93
2018-06-20T22:04:25.289Z,3.10
2018-06-20T22:07:02.394Z,2.60
2018-06-20T22:09:35.381Z,3.40
2018-06-20T22:12:19.996Z,3.50
2018-06-20T22:14:55.610Z,2.90
2018-06-20T22:17:38.161Z,4.00
2018-06-20T22:20:15.002Z,3.30
2018-06-20T22:22:49.170Z,3.47
2018-06-20T22:25:27.135Z,3.33
2018-06-20T22:28:01.893Z,3.00
2018-06-20T22:30:37.142Z,3.87
2018-06-20T22:33:24.795Z,3.67
2018-06-20T22:36:01.293Z,3.33
2018-06-20T22:38:38.109Z,3.07
2018-06-20T22:41:12.002Z,3.47
2018-06-20T22:43:45.390Z,3.40
2018-06-20T22:46:23.219Z,3.20
2018-06-20T22:48:55.932Z,3.60
2018-06-20T22:51:32.021Z,4.00
2018-06-20T22:54:08.044Z,3.43
2018-06-20T22:56:45.676Z,3.30
2018-06-20T22:59:20.958Z,3.37
2018-06-20T23:01:54.813Z,3.60
2018-06-20T23:04:29.281Z,3.70
2018-06-20T23:07:02.624Z,5.03
2018-06-20T23:09:37.447Z,4.57
2018-06-20T23:12:13.208Z,4.13
2018-06-20T23:14:49.249Z,3.30
2018-06-20T23:17:23.906Z,4.00
2018-06-20T23:19:59.332Z,4.27
2018-06-20T23:22:31.993Z,3.70
2018-06-20T23:25:05.246Z,4.00
2018-06-20T23:27:39.237Z,3.43
2018-06-20T23:30:13.393Z,3.73
2018-06-20T23:32:47.952Z,3.80
2018-06-20T23:35:21.618Z,5.10
2018-06-20T23:37:55.564Z,4.00
2018-06-20T23:40:29.690Z,3.87
2018-06-20T23:43:03.446Z,4.03
2018-06-20T23:45:37.325Z,4.03
2018-06-20T23:48:10.534Z,4.10
2018-06-20T23:50:44.763Z,4.20
2018-06-20T23:53:17.546Z,4.20
2018-06-20T23:55:59.604Z,3.90
2018-06-20T23:58:34.008Z,3.97
